Tiempo atmosférico en la estación meteorológica de Salamanca Aeropuerto, Salamanca (790 m.)



Fecha
DESCASC
Temp. máxima en grados centígrados (hora)
DESCASC
Temp. mínima en grados centígrados (hora)
DESCASC
Temp. media en grados centígrados
DESCASC
Racha de viento máxima en m/sg (hora)
DESCASC
Velocidad máxima media en intervalos de 10 minutos(hora)
DESCASC
Precipitaciones diarias en mm
DESCASC
Precipitaciones de 00:00 a 06:00 en mm
DESCASC
Precipitaciones de 06:00 a 12:00 en mm
DESCASC
Precipitaciones de 12:00 a 18:00 en mm
DESCASC
Precipitaciones de 18:00 a 24:00 en mm
DESCASC
13-10-2019 22.9 (15:10) 10.5 (23:50) 16.7 14.44 (15:50) 10.28 (15:50) 0 0 0 0 0
12-10-2019 28.9 (15:10) 13.3 (00:00) 21.1 18.06 (17:30) 12.22 (16:20) 0 0 0 0 0
10-10-2019 25.1 (18:20) 5.1 (00:00) 15.1 -- (--) -- (--) 0 0 0 0 0
09-10-2019 23 (17:10) 11.4 (00:00) 17.2 6.67 (15:50) 4.17 (10:00) 0 0 0 0 0
08-10-2019 29.7 (16:00) 6.1 (00:00) 17.9 8.33 (14:30) 5 (15:50) 0 0 0 0 0
07-10-2019 27.9 (17:40) 5.4 (00:00) 16.6 -- (--) -- (--) 0 0 0 0 0
06-10-2019 26.2 (17:20) 3.7 (00:00) 15 5 (13:20) 3.06 (18:20) 0 0 0 0 0
05-10-2019 26.2 (16:30) 4.7 (08:40) 15.5 9.17 (15:50) 4.72 (16:50) 0 0 0 0 0
04-10-2019 25.2 (17:10) 6.7 (00:00) 16 7.22 (16:20) 4.17 (18:00) 0 0 0 0 0
03-10-2019 26 (17:40) 3.8 (00:00) 14.9 7.22 (15:40) 4.17 (15:50) 0 0 0 0 0
02-10-2019 20.9 (18:20) 6 (00:00) 13.4 6.67 (16:30) 4.17 (00:40) 0 0 0 0 0
01-10-2019 23.2 (17:00) 10.1 (00:00) 16.7 10.83 (15:20) 6.67 (15:20) 0 0 0 0 0
30-09-2019 29.5 (17:00) 7 (00:00) 18.3 8.89 (16:20) 5.28 (20:40) 0 0 0 0 0
29-09-2019 28.3 (17:50) 5.3 (00:00) 16.8 9.17 (14:30) 6.11 (14:30) 0 0 0 0 0
28-09-2019 28.1 (17:50) 5.7 (00:00) 16.9 5.83 (17:50) 2.78 (01:20) 0 0 0 0 0
27-09-2019 25.8 (17:00) 5.1 (00:00) 15.4 9.72 (14:20) 5 (16:50) 0 0 0 0 0
26-09-2019 27.2 (17:10) 7.1 (00:00) 17.2 8.89 (15:00) 5.56 (16:50) 0 0 0 0 0
25-09-2019 22.3 (18:40) 6.6 (00:00) 14.4 5.83 (00:30) 4.17 (03:10) 0 0 0 0 0
24-09-2019 21.9 (18:10) 7.5 (00:00) 14.7 11.67 (18:10) 8.06 (18:10) 0 0 0 0 0
23-09-2019 23.5 (17:00) 6.2 (00:00) 14.8 8.33 (17:10) 4.44 (17:10) 0 0 0 0 0
22-09-2019 20.6 (17:30) 9.4 (00:00) 15 12.78 (01:40) 8.61 (01:40) 6.4 6.2 0.2 0 0
21-09-2019 21 (16:00) 13 (00:00) 17 12.78 (17:40) 8.89 (15:40) 1.1 0 0.4 0.7 0
20-09-2019 28 (17:00) 12.8 (00:00) 20.4 13.33 (19:00) 10 (19:00) 0 0 0 0 0
19-09-2019 27.6 (18:10) 10.1 (00:00) 18.9 -- (--) -- (--) 0 0 0 0 0
18-09-2019 25.7 (17:50) 10.7 (00:00) 18.2 6.11 (17:30) -- (--) 0 0 0 0 0
17-09-2019 26 (15:50) 11.6 (00:00) 18.8 -- (--) -- (--) 4.2 0 0 0 4.2
16-09-2019 22.7 (14:40) 10.1 (00:00) 16.4 6.11 (15:50) 4.44 (16:20) 0 0 0 0 0

Gráficas

Temp. máximas Temp. mínimas Temp. medias Precipitaciones Rachas de viento máximas Velocidades máximas media en intervalos de 10 minutos

Datos horarios

Fecha y hora oficial Temperatura (ºC) Velocidad del viento (km/h) Dirección del viento Racha (km/h) Dirección de racha Precipitación (mm) Presión (hPa) Tendencia (hPa) Humedad (%)
2019-10-15 23:00:00 11.1 14 Sudoeste 18 Sudoeste 0 929.4 0.4 72
2019-10-15 22:00:00 11.1 14 Sudoeste 21 Sudoeste 0 929.4 0.7 71
2019-10-15 21:00:00 11.2 15 Sudoeste 21 Sudoeste 0 929.3 0.5 71
2019-10-15 20:00:00 11.6 9 Sudoeste 21 Oeste 0 929 0.1 68
2019-10-15 19:00:00 14.1 16 Oeste 32 Oeste 0 928.7 -0.3 52
2019-10-15 18:00:00 14 18 Oeste 32 Sudoeste 0 928.8 -0.3 52
2019-10-15 17:00:00 14.7 20 Oeste 33 Oeste 0 928.9 -0.9 51
2019-10-15 16:00:00 14.7 16 Oeste 37 Oeste 0 929 -0.9 52
2019-10-15 15:00:00 13.8 17 Oeste 30 Noroeste 0 929.1 -1.1 55
2019-10-15 14:00:00 13 12 Oeste 26 Oeste 0 929.8 -0.6 59
2019-10-15 13:00:00 11.9 12 Oeste 24 Noroeste 0 929.9 0.3 62
2019-10-15 12:00:00 11.1 13 Oeste 24 Oeste 0 930.2 1.1 73
2019-10-15 11:00:00 9.8 15 Oeste 24 Sudoeste 0 930.4 1.4 83
2019-10-15 10:00:00 6.4 8 Oeste 13 Oeste 0 929.6 0.8 97
2019-10-15 09:00:00 2.4 6 Oeste 9 Oeste 0 929.1 0.5 97
2019-10-15 08:00:00 2.6 0 Calma 11 Sudoeste 0 929 1 96
2019-10-15 07:00:00 3.1 6 Sudoeste -- -- 0 928.8 0.8 96
2019-10-15 06:00:00 3.7 10 Sur 15 Sur 0 928.6 0.6 94
2019-10-15 05:00:00 4.3 13 Sudoeste 21 Oeste 0 928 0.2 94
2019-10-15 04:00:00 4.8 13 Oeste 18 Oeste 0 928 0.4 93
2019-10-15 03:00:00 5.3 11 Oeste 24 Oeste 0 928 0.9 89
2019-10-15 02:00:00 5.7 16 Oeste 24 Oeste 0 927.8 1.3 89
2019-10-15 01:00:00 5.7 13 Oeste 21 Oeste 0 927.6 1.7 88
2019-10-15 00:00:00 6.7 17 Oeste 30 Oeste 0 927.1 1.9 85
2019-10-14 23:00:00 7.2 18 Oeste 28 Oeste 0 926.5 2.3 87
2019-10-14 22:00:00 8 17 Oeste 32 Oeste 0 925.9 2.5 84
2019-10-14 21:00:00 8.1 11 Oeste 39 Oeste 0.1 925.2 2.6 87
2019-10-14 20:00:00 9.2 14 Oeste 37 Oeste 0 924.2 2.3 84
2019-10-14 19:00:00 9.4 18 Oeste 39 Noroeste 0.3 923.4 2.2 79
2019-10-14 18:00:00 11.1 26 Oeste 45 Oeste 0.1 922.6 1.1 80
2019-10-14 17:00:00 10.8 16 Sudoeste 32 Sudoeste 0 921.9 0.4 85
2019-10-14 16:00:00 9 13 Oeste 55 Oeste 2.8 921.2 0 91
2019-10-14 15:00:00 11.7 31 Oeste 50 Oeste 0.4 921.5 0.6 85
2019-10-14 14:00:00 14.1 35 Sudoeste 58 Sudoeste 0 921.5 0.4 67
2019-10-14 13:00:00 15.2 41 Sudoeste 55 Sudoeste 0 921.2 0.8 61
2019-10-14 12:00:00 14.3 40 Sudoeste 55 Sudoeste 0 920.9 1.5 68
2019-10-14 11:00:00 12.4 26 Sudoeste 33 Sudoeste 0 921.1 2.6 83
2019-10-14 10:00:00 10.3 17 Oeste 33 Oeste 0.4 920.4 2.4 93
2019-10-14 09:00:00 10.4 24 Oeste 61 Sudoeste 0.5 919.4 1.4 89
2019-10-14 08:00:00 14.2 46 Sudoeste 76 Sudoeste 0 918.5 0.7 77
2019-10-14 07:00:00 11 10 Sur 15 Sur 0 918 -0.5 87
2019-10-14 06:00:00 9.8 3 Noroeste 15 Noroeste 0 918 -1.4 86
2019-10-14 05:00:00 9.8 3 Nordeste 9 Sudeste 0 917.8 -2.4 86
2019-10-14 04:00:00 9.9 5 Sur 9 Este 0 918.5 -2.2 87
2019-10-14 03:00:00 9.7 9 Este 11 Este 0 919.4 -1.9 86
2019-10-14 02:00:00 10.3 3 Este 13 Norte 0 920.2 -1.6 83
2019-10-14 01:00:00 10.9 0 Calma 13 Sur 0 920.7 -1.4 79
2019-10-14 00:00:00 11.6 13 Sur 15 Sur 0 921.3 -1 79
2019-10-13 23:00:00 11 4 Este 11 Sur 0 921.8 -0.4 81
2019-10-13 22:00:00 13 5 Sudeste 11 Sudoeste 0 922.1 0 69
2019-10-13 21:00:00 14.2 0 Calma 18 Sudoeste 0 922.3 -0.2 63
2019-10-13 20:00:00 17.6 15 Sudoeste 32 Sudoeste 0 922.2 -0.6 53
2019-10-13 19:00:00 20.5 22 Sudoeste 41 Sudoeste 0 922.1 -0.9 46
2019-10-13 18:00:00 21.9 24 Sudoeste 42 Sudoeste 0 922.5 -0.7 42
2019-10-13 17:00:00 22 33 Sudoeste 48 Sudoeste 0 922.8 -1.1 40
2019-10-13 16:00:00 22 35 Sudoeste 52 Sudoeste 0 923 -1.2 40
2019-10-13 15:00:00 22.5 33 Sudoeste 46 Sudoeste 0 923.2 -1.4 38
2019-10-13 14:00:00 21.3 21 Sudoeste 45 Oeste 0 923.9 -0.7 45
2019-10-13 13:00:00 19.6 29 Sudoeste 46 Sudoeste 0 924.2 0.1 51
2019-10-13 12:00:00 18.3 34 Sudoeste 42 Sudoeste 0 924.6 1.1 55
2019-10-13 11:00:00 17 21 Sudoeste 28 Sudoeste 0 924.6 1.2 62
2019-10-13 10:00:00 15 9 Sudoeste 22 Sudoeste 0 924.1 0.9 72
2019-10-13 09:00:00 12.3 19 Oeste 26 Oeste 0 923.5 1.3 85
2019-10-13 08:00:00 12.8 19 Sudoeste 26 Sudoeste 0 923.4 0.6 85
2019-10-13 07:00:00 12.8 14 Oeste 39 Sudoeste 0 923.2 0.4 86
2019-10-13 06:00:00 14.2 27 Sur 37 Sur 0 922.2 -0.8 84
2019-10-13 05:00:00 14 15 Sudoeste 28 Sudoeste 0 922.8 -0.4 86
2019-10-13 04:00:00 14.8 18 Sur 24 Sur 0 922.8 -0.5 86
2019-10-13 03:00:00 15.6 18 Sur 26 Sur 0 923 -0.3 84
2019-10-13 02:00:00 16.5 16 Sur 22 Sur 0 923.2 -0.1 76
2019-10-13 01:00:00 17.7 11 Sur 33 Sudoeste 0 923.3 0.5 63
2019-10-13 00:00:00 19.9 26 Sudoeste 45 Sudoeste 0 923.3 0.8 53
2019-10-12 23:00:00 20.2 26 Sudoeste 37 Sudoeste 0 923.3 0.9 46
2019-10-12 22:00:00 17.4 13 Sur 18 Sur 0 922.8 0.3 50
2019-10-12 21:00:00 20.5 14 Sur 24 Sur 0 922.5 -0.2 41
2019-10-12 20:00:00 22.4 14 Sur 42 Sudoeste 0 922.4 -0.5 36
2019-10-12 19:00:00 25.5 34 Sur 50 Sudoeste 0 922.5 -0.4 30
2019-10-12 18:00:00 26.1 37 Sudoeste 65 Sudoeste 0 922.7 -0.9 29
2019-10-12 17:00:00 27.6 41 Sudoeste 58 Sudoeste 0 922.9 -1.5 25
2019-10-12 16:00:00 27.8 40 Sudoeste 58 Sudoeste 0 922.9 -1.8 27
2019-10-12 15:00:00 27.3 30 Sudoeste 46 Sudoeste 0 923.6 -1.3 31
2019-10-12 14:00:00 25.7 32 Sudoeste 58 Sudoeste 0 924.4 -0.6 34
2019-10-12 13:00:00 25.2 35 Sudoeste 52 Sudoeste 0 924.7 -0.1 34
2019-10-12 12:00:00 22.6 18 Sur 32 Sur 0 924.9 0.5 44
2019-10-12 11:00:00 19.9 4 Sudeste 15 Sudoeste 0 925 0.6 58
2019-10-12 10:00:00 17.8 4 Sur 11 Sudeste 0 924.8 0.4 67
2019-10-12 09:00:00 17.2 5 Sudeste 17 Sur 0 924.4 0 64
2019-10-12 08:00:00 18.1 7 Sur 18 Sudoeste 0 924.4 0 59
2019-10-12 07:00:00 18.1 6 Oeste 35 Sudoeste 0 924.4 -0.7 62
2019-10-12 06:00:00 19.1 27 Sur 37 Sur 0 924.4 -1.3 59
2019-10-12 05:00:00 19.1 18 Sur 33 Sudoeste 0 924.4 -0.9 57
2019-10-12 04:00:00 17.7 4 Sur 13 Sudoeste 0 925.1 -0.8 63
2019-10-12 03:00:00 17.6 2 Oeste 18 Oeste 0 925.7 -0.3 63
2019-10-12 02:00:00 14.9 3 Nordeste 11 Norte 0 925.3 -1 77
2019-10-12 01:00:00 14 4 Sudeste 11 Este 0 925.9 -0.1 79
2019-10-12 00:00:00 13.3 5 Este 8 Este 0 926 0.2 80
2019-10-11 23:00:00 15.8 5 Sur 8 Sur 0 926.3 0.5 68
2019-10-11 22:00:00 17.5 9 Sudoeste 13 Sudoeste 0 926 0.3 62
2019-10-11 21:00:00 18.5 10 Sudoeste 17 Sudoeste 0 925.8 0.1 59
2019-10-11 20:00:00 21.5 15 Oeste 37 Oeste 0 925.8 0 51
2019-10-11 19:00:00 24.8 28 Sudoeste 41 Sudoeste 0 925.7 -0.4 40
2019-10-11 18:00:00 26.8 27 Sudoeste 45 Sudoeste 0 925.7 -1 37
2019-10-11 17:00:00 28.3 23 Sudoeste 37 Sudoeste 0 925.8 -2 35
2019-10-11 16:00:00 28.9 21 Sudoeste 45 Sudoeste 0 926.1 -2.4 33
2019-10-11 15:00:00 28.4 15 Oeste 32 Oeste 0 926.7 -2.2 34
2019-10-11 14:00:00 28 23 Sudoeste 45 Sudoeste 0 927.8 -1.6 34
2019-10-11 13:00:00 26 6 Sudeste 15 Sur 0 928.5 -0.6 37
2019-10-11 12:00:00 22.2 3 Sur 9 Sudeste 0 928.9 0.3 47
2019-10-11 11:00:00 17.3 4 Este 9 Sudeste 0 929.4 1.1 58
2019-10-11 10:00:00 12.3 0 Calma 5 Este 0 929.1 0.9 72
2019-10-11 09:00:00 7.1 -- -- -- -- 0 928.6 0.5 90
2019-10-11 08:00:00 6.6 -- -- -- -- 0 928.3 0.1 91
2019-10-11 07:00:00 6.8 3 Sudeste 4 Sudeste 0 928.2 -0.2 90
2019-10-11 06:00:00 6.8 0 Calma -- -- 0 928.1 -0.3 90
2019-10-11 05:00:00 8.1 4 Sur 5 Sur 0 928.2 -0.5 85
2019-10-11 04:00:00 7.5 4 Norte 5 Norte 0 928.4 -0.4 87
2019-10-11 03:00:00 7.6 5 Este 5 Este 0 928.4 -0.6 88
2019-10-11 02:00:00 8 0 Calma 8 Sudeste 0 928.7 -0.2 86
2019-10-11 01:00:00 9.5 -- -- -- -- 0 928.8 0.3 81
2019-10-11 00:00:00 9.4 7 Nordeste 9 Nordeste 0 929 0.6 84
2019-10-10 23:00:00 11.1 5 Sudeste 5 Sudeste 0 928.9 0.9 77
2019-10-10 22:00:00 12.1 -- -- -- -- 0 928.5 0.6 71
2019-10-10 21:00:00 14.2 0 Calma -- -- 0 928.4 0.4 65
2019-10-10 20:00:00 20.1 -- -- -- -- 0 928 -0.2 46
2019-10-10 19:00:00 24.1 8 Este 17 Sudeste 0 927.9 -0.6 32
2019-10-10 18:00:00 24.6 6 Nordeste 17 Norte 0 928 -0.9 30
2019-10-10 17:00:00 24.3 6 Este 21 Nordeste 0 928.2 -1.4 32
2019-10-10 16:00:00 23.6 12 Nordeste 22 Nordeste 0 928.5 -1.5 33
2019-10-10 15:00:00 22.6 12 Este 24 Este 0 928.9 -1.5 36
2019-10-10 14:00:00 21 15 Este 26 Nordeste 0 929.6 -1.1 40
2019-10-10 13:00:00 19.3 14 Este 22 Este 0 930 -0.5 47
2019-10-10 12:00:00 16 9 Este 17 Este 0 930.4 0.4 58
2019-10-10 11:00:00 13.3 9 Este 18 Este 0 930.7 1.1 67
2019-10-10 10:00:00 10.2 9 Nordeste 13 Nordeste 0 930.5 1.2 79
2019-10-10 09:00:00 6.2 4 Nordeste 9 Este 0 930 0.8 89
2019-10-10 08:00:00 5.8 4 Nordeste 9 Nordeste 0 929.6 0.5 88
2019-10-10 07:00:00 6.8 0 Calma 8 Nordeste 0 929.3 0.2 88
2019-10-10 06:00:00 7.8 3 Nordeste 21 Nordeste 0 929.2 -0.1 84
2019-10-10 05:00:00 8.4 5 Nordeste 11 Norte 0 929.1 -0.4 84
2019-10-10 04:00:00 9.3 4 Este 15 Este 0 929.1 -0.4 79
2019-10-10 03:00:00 10.6 12 Este 18 Este 0 929.3 -0.1 73
2019-10-10 02:00:00 9 6 Nordeste 11 Este 0 929.5 0.3 75
2019-10-10 01:00:00 11.1 9 Este 17 Este 0 929.5 0.5 68
2019-10-10 00:00:00 11.6 12 Este 15 Este 0 929.4 0.8 67
2019-10-09 23:00:00 12 9 Nordeste 13 Nordeste 0 929.2 1 57
2019-10-09 22:00:00 12.7 8 Norte 13 Norte 0 929 1.2 55
2019-10-09 21:00:00 13.3 10 Norte 11 Norte 0 928.6 1.1 53
2019-10-09 20:00:00 17.7 9 Nordeste 15 Nordeste 0 928.2 0.4 36
2019-10-09 19:00:00 21.7 11 Nordeste 17 Nordeste 0 927.8 -0.3 26
2019-10-09 18:00:00 22.9 14 Nordeste 21 Nordeste 0 927.5 -0.9 27
2019-10-09 17:00:00 22.7 10 Nordeste 22 Nordeste 0 927.8 -1.1 34
2019-10-09 16:00:00 22.1 13 Norte 24 Nordeste 0 928.1 -1.2 38
2019-10-09 15:00:00 22.1 10 Norte 22 Norte 0 928.4 -1.1 41
2019-10-09 14:00:00 20.7 8 Norte 21 Este 0 928.9 -0.6 50
2019-10-09 13:00:00 19.5 9 Nordeste 18 Este 0 929.3 -0.4 56
2019-10-09 12:00:00 17.9 8 Este 17 Este 0 929.5 0.4 62
2019-10-09 11:00:00 16.7 11 Este 18 Este 0 929.5 1.1 62
2019-10-09 10:00:00 14.1 15 Nordeste 21 Nordeste 0 929.7 1 79
2019-10-09 09:00:00 12.8 9 Norte 17 Norte 0 929.1 1 94
2019-10-09 08:00:00 14.1 6 Sudoeste 13 Norte 0 928.4 0.8 87
2019-10-09 07:00:00 14.5 3 Noroeste 9 Noroeste 0 928.7 0.8 90
2019-10-09 06:00:00 14.3 0 Calma 15 Norte 0 928.1 0 89
2019-10-09 05:00:00 15.5 8 Sudoeste 13 Sudoeste 0 927.6 -0.6 87
2019-10-09 04:00:00 14.1 8 Sur 11 Oeste 0 927.9 -0.2 90
2019-10-09 03:00:00 12.3 2 Oeste 8 Oeste 0 928.1 0 85
2019-10-09 02:00:00 14.6 5 Sudoeste 13 Sudoeste 0 928.2 0.5 81
2019-10-09 01:00:00 15.1 5 Oeste 18 Oeste 0 928.1 0.7 79
2019-10-09 00:00:00 14 12 Oeste 13 Oeste 0 928.1 0.8 80
2019-10-08 23:00:00 15.8 11 Sudoeste 13 Oeste 0 927.7 0.7 70
2019-10-08 22:00:00 17.7 5 Oeste 13 Noroeste 0 927.4 1 64
2019-10-08 21:00:00 20.3 10 Noroeste 21 Norte 0 927.3 0.9 55
2019-10-08 20:00:00 23.7 13 Noroeste 24 Noroeste 0 927 0.4 44
2019-10-08 19:00:00 27.4 11 Noroeste 24 Noroeste 0 926.4 -0.6 38
2019-10-08 18:00:00 28.8 15 Noroeste 28 Noroeste 0 926.4 -0.9 31
2019-10-08 17:00:00 29.3 14 Noroeste 28 Oeste 0 926.6 -1.3 31
2019-10-08 16:00:00 29.4 14 Noroeste 30 Oeste 0 927 -1.7 29
2019-10-08 15:00:00 28.5 16 Oeste 30 Noroeste 0 927.3 -1.9 28
2019-10-08 14:00:00 27.4 13 Oeste 21 Oeste 0 927.9 -1.6 31
2019-10-08 13:00:00 25.4 7 Oeste 17 Oeste 0 928.7 -0.7 36
2019-10-08 12:00:00 21.5 4 Oeste 9 Oeste 0 929.2 0.1 46
2019-10-08 11:00:00 17.1 3 Oeste 8 Oeste 0 929.5 0.4 53
2019-10-08 10:00:00 12 0 Calma 4 Este 0 929.4 0.6 76
2019-10-08 09:00:00 6.8 0 Calma 5 Sudeste 0 929.1 0.5 90
2019-10-08 08:00:00 6.4 0 Calma 8 Nordeste 0 929.1 0.2 92
2019-10-08 07:00:00 6.9 0 Calma 5 Sur 0 928.8 -0.2 88
2019-10-08 06:00:00 7.7 4 Sur 8 Sur 0 928.6 -0.8 88
2019-10-08 05:00:00 7.3 0 Calma 4 Noroeste 0 928.9 -0.5 88
2019-10-08 04:00:00 8.2 0 Calma 8 Sur 0 929 -0.7 86
2019-10-08 03:00:00 8.5 5 Nordeste 8 Norte 0 929.4 -0.7 87
2019-10-08 02:00:00 9.8 7 Sur 9 Sudoeste 0 929.4 -0.4 82
2019-10-08 01:00:00 10.2 3 Nordeste 5 Nordeste 0 929.7 0.1 81
2019-10-08 00:00:00 11.5 3 Este 5 Este 0 930.1 0.9 77
2019-10-07 23:00:00 13.2 4 Sudeste 9 Sudoeste 0 929.8 0.8 68
2019-10-07 22:00:00 14.6 3 Este 8 Sur 0 929.6 0.7 63
2019-10-07 21:00:00 17.6 3 Sudeste -- -- 0 929.2 0.2 53
2019-10-07 20:00:00 22.8 -- -- -- -- 0 929 -0.3 35
2019-10-07 19:00:00 26.3 9 Sudeste 15 Sudeste 0 928.9 -0.5 22
2019-10-07 18:00:00 27.4 8 Nordeste 17 Este 0 929 -0.8 19
2019-10-07 17:00:00 27.1 5 Norte 18 Este 0 929.3 -1.1 21
2019-10-07 16:00:00 26.6 5 Norte 15 Nordeste 0 929.4 -1.4 20
2019-10-07 15:00:00 26.4 4 Este 17 Sudeste 0 929.8 -1.3 22
2019-10-07 14:00:00 24.9 8 Este 17 Este 0 930.4 -0.7 25
2019-10-07 13:00:00 23 6 Este 13 Este 0 930.8 -0.2 36
2019-10-07 12:00:00 19.4 3 Este 8 Nordeste 0 931.1 0.3 53
2019-10-07 11:00:00 16.3 3 Sur 8 Sudeste 0 931.1 0.8 58
2019-10-07 10:00:00 11.2 5 Sudoeste 8 Sudoeste 0 931 1.1 77
2019-10-07 09:00:00 6.4 3 Nordeste -- -- 0 930.8 1.1 95
2019-10-07 08:00:00 5.9 4 Este 8 Este 0 930.3 0.2 92
2019-10-07 07:00:00 5.9 3 Nordeste 5 Sur 0 929.9 -0.3 91
2019-10-07 06:00:00 6.6 3 Sur 5 Sur 0 929.7 -1 92
2019-10-07 05:00:00 7 3 Este 9 Norte 0 930.1 -0.6 89
2019-10-07 04:00:00 8 4 Sudeste 8 Este 0 930.2 -0.7 88
2019-10-07 03:00:00 8.2 6 Este 8 Este 0 930.7 -0.3 87
2019-10-07 02:00:00 9.2 3 Sur 8 Sudeste 0 930.7 -0.1 82
2019-10-07 01:00:00 10.5 2 Sur -- -- 0 930.9 0.6 77
2019-10-07 00:00:00 10.6 5 Sudeste 8 Sudeste 0 931 1.2 80
2019-10-06 23:00:00 13.6 5 Sudoeste 5 Sudoeste 0 930.8 1.5 62
2019-10-06 22:00:00 15.1 0 Calma 11 Noroeste 0 930.3 1 54
2019-10-06 21:00:00 16.5 9 Noroeste 15 Noroeste 0 929.8 0.6 49
2019-10-06 20:00:00 20.4 9 Oeste 13 Noroeste 0 929.3 0.1 45
2019-10-06 19:00:00 24.9 7 Noroeste 17 Oeste 0 929.3 -0.4 31
2019-10-06 18:00:00 25.5 9 Noroeste 15 Oeste 0 929.2 -1.1 30
2019-10-06 17:00:00 25.4 4 Norte 15 Norte 0 929.2 -1.6 31
2019-10-06 16:00:00 24.5 4 Noroeste 15 Nordeste 0 929.7 -1.4 34
2019-10-06 15:00:00 23.3 4 Nordeste 15 Nordeste 0 930.3 -1.3 35
2019-10-06 14:00:00 21.8 6 Nordeste 18 Este 0 930.8 -0.4 40
2019-10-06 13:00:00 19.6 5 Norte 17 Norte 0 931.1 0.4 56
2019-10-06 12:00:00 16.4 6 Noroeste 9 Oeste 0 931.6 1.6 67
2019-10-06 11:00:00 13 4 Noroeste 11 Norte 0 931.2 1.3 80
2019-10-06 10:00:00 9 0 Calma 8 Sur 0 930.7 1.5 90
2019-10-06 09:00:00 6 5 Sudeste -- -- 0 930 0.9 96
2019-10-06 08:00:00 4.7 3 Sudeste 5 Sur 0 929.9 0.9 94
2019-10-06 07:00:00 4.4 0 Calma 5 Sur 0 929.2 0 94
2019-10-06 06:00:00 5.2 2 Este -- -- 0 929.1 0.1 92
2019-10-06 05:00:00 5.4 0 Calma 8 Sur 0 929 0.1 90
2019-10-06 04:00:00 6.2 0 Calma 8 Nordeste 0 929.2 0.4 92
2019-10-06 03:00:00 6.3 2 Este 9 Este 0 929 -0.1 90
2019-10-06 02:00:00 7.3 5 Sur 8 Sudeste 0 928.9 0.5 87
2019-10-06 01:00:00 8.5 5 Sudeste 9 Sudeste 0 928.8 1 82
2019-10-06 00:00:00 10 6 Sudoeste 11 Sudoeste 0 929.1 1.4 74
2019-10-05 23:00:00 11.1 8 Oeste 13 Oeste 0 928.4 1.3 71
2019-10-05 22:00:00 13.3 2 Sudoeste 9 Noroeste 0 927.8 1.1 62
2019-10-05 21:00:00 15.1 6 Noroeste 13 Oeste 0 927.7 1.4 55
2019-10-05 20:00:00 19 12 Oeste 18 Oeste 0 927.1 1 42
2019-10-05 19:00:00 24.1 12 Oeste 24 Oeste 0 926.7 0.4 30
2019-10-05 18:00:00 25.3 14 Oeste 26 Noroeste 0 926.3 -0.4 31
2019-10-05 17:00:00 25.7 15 Oeste 28 Oeste 0 926.1 -1.2 35
2019-10-05 16:00:00 25.7 14 Oeste 33 Noroeste 0 926.3 -1.1 37
2019-10-05 15:00:00 24.5 12 Oeste 21 Oeste 0 926.7 -0.9 42
2019-10-05 14:00:00 23.2 7 Sudoeste 13 Oeste 0 927.3 -0.3 50
2019-10-05 13:00:00 20.8 4 Nordeste 11 Sudeste 0 927.4 -0.1 60
2019-10-05 12:00:00 18.2 3 Este 9 Nordeste 0 927.6 0.6 70
2019-10-05 11:00:00 15.2 2 Sudoeste 5 Oeste 0 927.6 1.1 76
2019-10-05 10:00:00 10.5 2 Sudoeste 5 Sudoeste 0 927.5 1.1 92
2019-10-05 09:00:00 5.7 0 Calma 4 Nordeste 0 927 0.5 98
2019-10-05 08:00:00 5.5 3 Este 5 Nordeste 0 926.5 -0.1 97
2019-10-05 07:00:00 6.1 0 Calma 5 Nordeste 0 926.4 -0.3 97
2019-10-05 06:00:00 6.2 0 Calma 5 Sudeste 0 926.5 -0.6 96
2019-10-05 05:00:00 7.5 -- -- -- -- 0 926.6 -0.5 95
2019-10-05 04:00:00 7.6 0 Calma 2 Sudeste 0 926.7 -0.5 93
2019-10-05 03:00:00 8.2 0 Calma 4 Este 0 927.1 0 91
2019-10-05 02:00:00 9.1 3 Este 9 Noroeste 0 927.1 0.1 91
2019-10-05 01:00:00 10.2 4 Este 5 Este 0 927.2 0.5 90
2019-10-05 00:00:00 11.6 3 Sur 8 Sur 0 927.1 0.7 83
2019-10-04 23:00:00 12.5 0 Calma 5 Noroeste 0 927 1 83
2019-10-04 22:00:00 14.7 2 Noroeste 11 Noroeste 0 926.7 1.1 72
2019-10-04 21:00:00 16.5 9 Noroeste 13 Noroeste 0 926.4 0.6 68
2019-10-04 20:00:00 21.2 8 Oeste 17 Oeste 0 926 -0.1 51
2019-10-04 19:00:00 24.6 12 Oeste 22 Sudoeste 0 925.6 -1.2 41
2019-10-04 18:00:00 25 15 Oeste 22 Sudoeste 0 925.8 -2.1 39
2019-10-04 17:00:00 24.6 8 Oeste 26 Oeste 0 926.1 -2.9 47
2019-10-04 16:00:00 23.7 9 Noroeste 24 Oeste 0 926.8 -2 51
2019-10-04 15:00:00 21.9 10 Oeste 22 Oeste 0 927.9 -1.2 59
2019-10-04 14:00:00 18.5 12 Oeste 18 Oeste 0 929 0.1 75
2019-10-04 13:00:00 17.5 6 Oeste 17 Oeste 0 928.8 0 80
2019-10-04 12:00:00 16.3 8 Oeste 11 Oeste 0 929.1 0.6 85
2019-10-04 11:00:00 13.8 0 Calma 5 Sur 0 928.9 0.9 90
2019-10-04 10:00:00 11.9 0 Calma 8 Sur 0 928.8 0.8 89
2019-10-04 09:00:00 9.5 4 Sur 8 Sur 0 928.5 0.4 93
2019-10-04 08:00:00 7.9 4 Nordeste 5 Nordeste 0 928 -0.3 95
2019-10-04 07:00:00 7.1 0 Calma 5 Sudeste 0 928 -0.6 93
2019-10-04 06:00:00 7.7 3 Sur 5 Sur 0 928.1 -1.2 93
2019-10-04 05:00:00 7.7 3 Este 8 Nordeste 0 928.3 -1 93
2019-10-04 04:00:00 8.4 4 Sudoeste 8 Sudeste 0 928.6 -0.9 88
2019-10-04 03:00:00 7.6 8 Este 9 Este 0 929.3 -0.3 90
2019-10-04 02:00:00 9.4 5 Sur 8 Sudeste 0 929.3 0.2 85
2019-10-04 01:00:00 10.4 4 Sur 8 Noroeste 0 929.5 0.8 76
2019-10-04 00:00:00 11.8 0 Calma 9 Oeste 0 929.6 1.3 66
2019-10-03 23:00:00 13.1 9 Oeste 11 Oeste 0 929.1 1.1 59
2019-10-03 22:00:00 13.7 6 Oeste 15 Oeste 0 928.7 0.9 58
2019-10-03 21:00:00 16.8 5 Sudoeste -- -- 0 928.3 0.2 50
2019-10-03 20:00:00 21.5 9 Oeste 11 Oeste 0 928 -0.4 35
2019-10-03 19:00:00 25.2 7 Oeste 17 Oeste 0 927.8 -1 24
2019-10-03 18:00:00 26 11 Oeste 21 Oeste 0 928.1 -0.9 22
2019-10-03 17:00:00 25.1 14 Oeste 24 Noroeste 0 928.4 -1.2 28
2019-10-03 16:00:00 24.9 15 Noroeste 26 Noroeste 0 928.8 -1 30
2019-10-03 15:00:00 23.4 11 Oeste 22 Noroeste 0 929 -1 33
2019-10-03 14:00:00 21.7 11 Oeste 22 Noroeste 0 929.6 -0.9 37
2019-10-03 13:00:00 20.1 8 Oeste 15 Noroeste 0 929.8 -0.3 41
2019-10-03 12:00:00 17.3 4 Sur 11 Oeste 0 930 0.3 54
2019-10-03 11:00:00 13.3 3 Oeste 11 Sudeste 0 930.5 1.1 67
2019-10-03 10:00:00 8.6 2 Sur 8 Sur 0 930.1 0.6 87
2019-10-03 09:00:00 4.9 3 Este 8 Este 0 929.7 0.6 96
2019-10-03 08:00:00 3.9 0 Calma 5 Sudeste 0 929.4 0.7 94
2019-10-03 07:00:00 4.3 0 Calma 8 Oeste 0 929.5 0.4 92
2019-10-03 06:00:00 5.6 5 Oeste 8 Oeste 0 929.1 -0.1 93
2019-10-03 05:00:00 5.6 2 Oeste 5 Oeste 0 928.7 -0.5 93
2019-10-03 04:00:00 6 0 Calma 13 Este 0 929.1 -0.5 89
2019-10-03 03:00:00 6.5 0 Calma 5 Este 0 929.2 -0.6 90
2019-10-03 02:00:00 6.8 3 Sudeste 9 Este 0 929.2 -0.6 89
2019-10-03 01:00:00 7.2 5 Este 8 Este 0 929.6 0 90
2019-10-03 00:00:00 8.4 0 Calma 8 Sudeste 0 929.8 0.5 86
2019-10-02 23:00:00 8.7 5 Este 11 Sur 0 929.8 0.5 88
2019-10-02 22:00:00 11.1 0 Calma 5 Sur 0 929.6 0.7 75
2019-10-02 21:00:00 13.1 4 Sudeste 9 Sudeste 0 929.3 0.7 68
2019-10-02 20:00:00 -- -- -- -- -- 0 929.3 0.4 --
2019-10-02 19:00:00 19.9 6 Nordeste 17 Este 0 928.9 -0.1 36
2019-10-02 18:00:00 20.4 5 Noroeste 21 Este 0 928.6 -0.5 37
2019-10-02 17:00:00 20.2 5 Nordeste 24 Nordeste 0 928.9 -0.6 38
2019-10-02 16:00:00 20.2 10 Este 22 Este 0 929 -0.6 38
2019-10-02 15:00:00 19.7 8 Este 22 Norte 0 929.1 -0.7 42
2019-10-02 14:00:00 18.1 12 Nordeste 22 Este 0 929.5 -0.4 46
2019-10-02 13:00:00 16.7 9 Este 21 Nordeste 0 929.6 0.2 53
2019-10-02 12:00:00 15.2 6 Este 15 Este 0 929.8 1.1 63
2019-10-02 11:00:00 12.5 4 Sudoeste 9 Sudoeste 0 929.9 1.3 78
2019-10-02 10:00:00 10.3 2 Sudoeste 5 Oeste 0 929.4 1.1 90
2019-10-02 09:00:00 6.5 5 Sudoeste -- -- 0 928.7 0.6 96
2019-10-02 08:00:00 6.9 9 Sudoeste 13 Sudoeste 0 928.6 0.8 95
2019-10-02 07:00:00 7.4 11 Sudoeste 13 Sudoeste 0 928.3 0.4 95
2019-10-02 06:00:00 8.5 8 Sudoeste 17 Oeste 0 928.1 0.1 93
2019-10-02 05:00:00 9.7 11 Sudoeste 13 Sudoeste 0 927.8 -0.4 92
2019-10-02 04:00:00 9.5 8 Sudoeste 15 Oeste 0 927.9 -0.4 90
2019-10-02 03:00:00 10.7 10 Oeste 22 Oeste 0 928 0 87
2019-10-02 02:00:00 11 13 Oeste 17 Oeste 0 928.2 0.8 85
2019-10-02 01:00:00 12.3 11 Oeste 22 Oeste 0 928.3 1.4 81
2019-10-02 00:00:00 13.6 13 Noroeste 24 Oeste 0 928 2.1 73
2019-10-01 23:00:00 15.1 14 Oeste 22 Noroeste 0 927.4 1.9 65
2019-10-01 22:00:00 14.6 13 Oeste 21 Oeste 0 926.9 1.4 66
2019-10-01 21:00:00 14.9 13 Noroeste 18 Oeste 0 925.9 0.5 67
2019-10-01 20:00:00 19.3 13 Oeste 26 Oeste 0 925.5 0 48
2019-10-01 19:00:00 21.9 18 Oeste 33 Oeste 0 925.5 -0.2 43
2019-10-01 18:00:00 22.7 19 Oeste 33 Oeste 0 925.4 -0.9 43
2019-10-01 17:00:00 22.9 18 Oeste 35 Oeste 0 925.5 -1.3 43
2019-10-01 16:00:00 22.3 17 Oeste 39 Oeste 0 925.7 -1.2 47
2019-10-01 15:00:00 20.3 18 Oeste 32 Noroeste 0 926.3 -0.9 57
2019-10-01 14:00:00 19.2 18 Noroeste 30 Noroeste 0 926.8 0 63
2019-10-01 13:00:00 19.4 13 Oeste 28 Oeste 0 926.9 0.6 62
2019-10-01 12:00:00 19.1 14 Oeste 28 Oeste 0 927.2 1.6 61
2019-10-01 11:00:00 16.7 14 Oeste 28 Oeste 0 926.8 1.8 71
2019-10-01 10:00:00 15.1 19 Oeste 35 Noroeste 0 926.3 1.8 80
2019-10-01 09:00:00 14.3 16 Oeste 26 Oeste 0 925.6 0.9 87
2019-10-01 08:00:00 14.5 7 Oeste 13 Oeste 0 925 0.7 91
2019-10-01 07:00:00 14.9 10 Oeste 28 Noroeste 0 924.5 -0.2 91
2019-10-01 06:00:00 12.8 5 Noroeste 13 Noroeste 0 924.7 -0.7 91
2019-10-01 05:00:00 10.5 2 Oeste 5 Sur 0 924.3 -1.3 88
2019-10-01 04:00:00 11.6 3 Sur 8 Sur 0 924.7 -0.7 83
2019-10-01 03:00:00 12.3 3 Sudoeste -- -- 0 925.4 -0.3 79
2019-10-01 02:00:00 12 5 Sur 9 Sur 0 925.6 0.1 75
2019-10-01 01:00:00 12.6 0 Calma 5 Sudeste 0 925.4 0.1 75
2019-10-01 00:00:00 14.4 4 Sudeste 13 Noroeste 0 925.7 0.7 62
2019-09-30 23:00:00 14.7 6 Nordeste 11 Este 0 925.5 0.7 59
2019-09-30 22:00:00 17.7 3 Norte 22 Sudoeste 0 925.3 0.6 45
2019-09-30 21:00:00 21.5 18 Sudoeste 24 Sudoeste 0 925 0.2 32
2019-09-30 20:00:00 24.3 18 Sudoeste 24 Sudoeste 0 924.8 -0.6 30
2019-09-30 19:00:00 28 17 Sudoeste 24 Oeste 0 924.7 -1.2 28
2019-09-30 18:00:00 28.8 10 Oeste 30 Oeste 0 924.8 -1.7 28
2019-09-30 17:00:00 29.3 13 Oeste 32 Noroeste 0 925.4 -1.9 27
2019-09-30 16:00:00 28.7 14 Noroeste 22 Oeste 0 925.9 -2 26
2019-09-30 15:00:00 27 5 Noroeste 17 Noroeste 0 926.5 -1.9 36
2019-09-30 14:00:00 25.8 5 Norte 13 Norte 0 927.3 -1.1 40
2019-09-30 13:00:00 23.9 3 Sudeste 11 Sur 0 927.9 -0.6 51
2019-09-30 12:00:00 21.2 3 Este 9 Este 0 928.4 0.3 61
2019-09-30 11:00:00 17.1 3 Este 9 Este 0 928.4 0.3 68
2019-09-30 10:00:00 13.1 4 Sudeste 8 Sudeste 0 928.5 0.4 78
2019-09-30 09:00:00 8.3 4 Este 5 Este 0 928.1 -0.2 95
2019-09-30 08:00:00 8 -- -- -- -- 0 928.1 -0.4 93
2019-09-30 07:00:00 8 4 Este 5 Este 0 928.1 -0.9 94
2019-09-30 06:00:00 8.2 0 Calma 5 Sur 0 928.3 -1 90
2019-09-30 05:00:00 9.1 5 Sudeste 9 Este 0 928.5 -0.8 90
2019-09-30 04:00:00 9.1 3 Este 8 Nordeste 0 929 -0.1 91
2019-09-30 03:00:00 10 2 Este 9 Sur 0 929.3 0.2 87
2019-09-30 02:00:00 10.9 7 Sudeste 8 Sur 0 929.3 0.5 83
2019-09-30 01:00:00 11.6 5 Sudoeste -- -- 0 929.1 0.6 81
2019-09-30 00:00:00 13.3 3 Sudoeste 8 Oeste 0 929.1 1.1 73
2019-09-29 23:00:00 14 0 Calma 13 Oeste 0 928.8 1.2 68
2019-09-29 22:00:00 15.7 4 Oeste 8 Oeste 0 928.5 1.1 63
2019-09-29 21:00:00 19.1 7 Noroeste 11 Noroeste 0 928 0.4 50
2019-09-29 20:00:00 22.9 10 Oeste 15 Oeste 0 927.6 -0.3 39
2019-09-29 19:00:00 27.1 11 Oeste 21 Sudoeste 0 927.4 -0.9 26
2019-09-29 18:00:00 27.8 13 Oeste 24 Oeste 0 927.6 -1.2 22
2019-09-29 17:00:00 28 14 Oeste 24 Oeste 0 927.9 -1.4 16
2019-09-29 16:00:00 27.4 15 Oeste 28 Noroeste 0 928.3 -1.3 18
2019-09-29 15:00:00 26.8 19 Oeste 33 Oeste 0 928.8 -0.8 24
2019-09-29 14:00:00 26 21 Oeste 32 Oeste 0 929.3 0 29
2019-09-29 13:00:00 23.3 11 Oeste 26 Noroeste 0 929.6 0.9 44
2019-09-29 12:00:00 20.1 8 Noroeste 13 Noroeste 0 929.6 1 57
2019-09-29 11:00:00 17 5 Sur 8 Sudeste 0 929.3 0.9 66
2019-09-29 10:00:00 11.9 5 Sur 8 Sudoeste 0 928.7 0.5 81
2019-09-29 09:00:00 6.6 4 Norte 9 Norte 0 928.6 0.5 96
2019-09-29 08:00:00 5.6 0 Calma 4 Sudeste 0 928.4 -0.1 93
2019-09-29 07:00:00 6.3 3 Este 9 Norte 0 928.2 -0.2 92
2019-09-29 06:00:00 6.4 4 Nordeste 9 Sur 0 928.1 -0.9 94
2019-09-29 05:00:00 7 0 Calma 8 Nordeste 0 928.5 -0.4 94
2019-09-29 04:00:00 7.7 4 Este 8 Sur 0 928.4 -0.4 90
2019-09-29 03:00:00 8 0 Calma -- -- -- 929 0 91
2019-09-29 02:00:00 9.1 4 Este 8 Nordeste 0 928.9 0 90
2019-09-29 01:00:00 10.3 0 Calma -- -- 0 928.8 0.1 90
2019-09-29 00:00:00 12 6 Sudeste 9 Sudeste 0 929 0.6 85
2019-09-28 23:00:00 13.1 0 Calma 5 Sudoeste 0 928.9 1 82
2019-09-28 22:00:00 15.4 0 Calma 9 Sudoeste 0 928.7 0.8 73
2019-09-28 21:00:00 18.6 4 Sur 8 Sudoeste 0 928.4 0.4 61
2019-09-28 20:00:00 25 0 Calma 5 Sur 0 927.9 -0.4 37
2019-09-28 19:00:00 27.9 3 Oeste 13 Noroeste 0 927.9 -1 25
2019-09-28 18:00:00 27.5 8 Noroeste 21 Noroeste 0 928 -1.4 29
2019-09-28 17:00:00 27.2 5 Noroeste 15 Norte 0 928.3 -1.9 32
2019-09-28 16:00:00 26.1 6 Noroeste 15 Noroeste 0 928.9 -1.8 35
2019-09-28 15:00:00 24.6 9 Noroeste 17 Noroeste 0 929.4 -1.6 36
2019-09-28 14:00:00 23.1 4 Este 13 Nordeste 0 930.2 -0.9 45
2019-09-28 13:00:00 21 4 Este 15 Este 0 930.7 0.1 58
2019-09-28 12:00:00 18.7 7 Este 15 Este 0 931 0.7 67
2019-09-28 11:00:00 15.5 5 Sudeste 9 Sudeste 0 931.1 1.1 78
2019-09-28 10:00:00 11.7 3 Este 5 Este 0 930.6 0.7 87
2019-09-28 09:00:00 7.4 2 Sudeste 5 Sur 0 930.3 0.3 97
2019-09-28 08:00:00 5.8 3 Nordeste 5 Nordeste 0 930 -0.1 97
2019-09-28 07:00:00 6.2 0 Calma -- -- 0 929.9 -0.6 94
2019-09-28 06:00:00 7 0 Calma 5 Nordeste 0 930 -0.8 95
2019-09-28 05:00:00 8.4 -- -- -- -- 0 930.1 -1 96
2019-09-28 04:00:00 8.8 5 Sudeste 8 Este 0 930.5 -0.5 93
2019-09-28 03:00:00 9.2 5 Nordeste -- -- -- 930.8 0 95
2019-09-28 02:00:00 10 0 Calma 11 Sur 0 931.1 0.7 89
2019-09-28 01:00:00 12.1 6 Sur 8 Sur 0 931 1 85
2019-09-28 00:00:00 13 3 Oeste 13 Noroeste 0 930.8 1.4 81
2019-09-27 23:00:00 12.5 11 Noroeste 15 Noroeste 0 930.4 1.2 82
2019-09-27 22:00:00 15.1 9 Noroeste 11 Oeste 0 930 1.1 73
2019-09-27 21:00:00 17.5 8 Noroeste 15 Noroeste 0 929.4 0.6 65
2019-09-27 20:00:00 21 10 Oeste 18 Noroeste 0 929.2 0.4 48
2019-09-27 19:00:00 24.3 15 Noroeste 26 Noroeste 0 928.9 -0.3 35
2019-09-27 18:00:00 25.3 15 Oeste 28 Noroeste 0 928.8 -0.8 30
2019-09-27 17:00:00 25.5 14 Oeste 30 Noroeste 0 928.8 -1.4 30
2019-09-27 16:00:00 24.9 15 Oeste 28 Oeste 0 929.2 -1.2 31
2019-09-27 15:00:00 23.7 13 Oeste 35 Noroeste 0 929.6 -1.2 34
2019-09-27 14:00:00 22.2 10 Oeste 21 Oeste 0 930.2 -0.6 42
2019-09-27 13:00:00 20.9 8 Oeste 18 Noroeste 0 930.4 -0.1 44
2019-09-27 12:00:00 18.8 5 Sudoeste 15 Sudoeste 0 930.8 0.7 56
2019-09-27 11:00:00 15.4 5 Oeste 9 Oeste 0 930.8 1 73
2019-09-27 10:00:00 11.6 0 Calma 9 Sur 0 930.5 0.6 83
2019-09-27 09:00:00 7 2 Este 8 Nordeste 0 930.1 0.1 96
2019-09-27 08:00:00 5.3 4 Nordeste 5 Nordeste 0 929.8 -0.1 93
2019-09-27 07:00:00 6.2 -- -- -- -- 0 929.9 0 92
2019-09-27 06:00:00 6.5 0 Calma 5 Sudeste 0 930 -0.1 92
2019-09-27 05:00:00 6.5 2 Norte 4 Norte 0 929.9 0.1 92
2019-09-27 04:00:00 7.5 0 Calma 8 Sur 0 929.9 -0.1 90
2019-09-27 03:00:00 8 3 Nordeste -- -- -- 930.1 0.1 89
2019-09-27 02:00:00 8.8 2 Este 5 Sudeste 0 929.8 0.1 87
2019-09-27 01:00:00 10 5 Sudeste 9 Sudeste 0 930 0.6 79
2019-09-27 00:00:00 10.3 3 Sudeste 13 Oeste 0 930 1.3 78
2019-09-26 23:00:00 12.1 11 Oeste 13 Oeste 0 929.7 1.4 66
2019-09-26 22:00:00 13.8 9 Sudoeste 13 Noroeste 0 929.4 1.3 64
2019-09-26 21:00:00 17.1 11 Noroeste 13 Noroeste 0 928.7 0.7 51
2019-09-26 20:00:00 21.9 11 Noroeste 21 Noroeste 0 928.3 0.1 37
2019-09-26 19:00:00 25.3 14 Oeste 26 Noroeste 0 928.1 -0.3 27
2019-09-26 18:00:00 26.5 14 Noroeste 26 Oeste 0 928 -0.6 22
2019-09-26 17:00:00 26.9 15 Oeste 30 Noroeste 0 928.2 -0.8 25
2019-09-26 16:00:00 26.3 17 Oeste 32 Oeste 0 928.4 -1.1 31
2019-09-26 15:00:00 25.2 19 Oeste 32 Oeste 0 928.6 -1.3 36
2019-09-26 14:00:00 22.8 11 Oeste 18 Oeste 0 929 -0.7 47
2019-09-26 13:00:00 21 6 Oeste 15 Oeste 0 929.5 -0.1 56
2019-09-26 12:00:00 18.6 5 Oeste 11 Oeste 0 929.9 0.6 65
2019-09-26 11:00:00 16.4 4 Sur 9 Sur 0 929.7 0.7 74
2019-09-26 10:00:00 12.5 0 Calma 5 Sur 0 929.6 0.9 89
2019-09-26 09:00:00 8.6 4 Este 5 Este 0 929.3 0.4 97
2019-09-26 08:00:00 7.6 0 Calma -- -- 0 929 0 96
2019-09-26 07:00:00 7.9 2 Este 5 Este 0 928.7 -0.5 95
2019-09-26 06:00:00 8.2 0 Calma 5 Este 0 928.9 -0.4 96
2019-09-26 05:00:00 8.6 0 Calma 5 Sudeste 0 929 -0.3 93
2019-09-26 04:00:00 9.3 4 Sur 5 Sudeste 0 929.2 0 93
2019-09-26 03:00:00 10.5 3 Sudoeste 9 Sudoeste 0 929.3 0.3 87
2019-09-26 02:00:00 10.7 0 Calma 4 Sur 0 929.3 0.5 91
2019-09-26 01:00:00 11.2 4 Norte 8 Oeste 0 929.2 0.7 86
2019-09-26 00:00:00 12.6 8 Oeste 11 Oeste 0 929 0.9 82
2019-09-25 23:00:00 13.8 0 Calma 8 Oeste 0 928.8 1 77
2019-09-25 22:00:00 14.9 6 Oeste 11 Noroeste 0 928.5 0.5 74
2019-09-25 21:00:00 16.4 10 Noroeste 13 Noroeste 0 928.1 0.1 68
2019-09-25 20:00:00 20.1 5 Oeste 15 Noroeste 0 927.8 -0.3 54
2019-09-25 19:00:00 22.1 9 Oeste 15 Oeste 0 928 -0.7 44
2019-09-25 18:00:00 21.6 10 Oeste 18 Oeste 0 928 -1.1 45
2019-09-25 17:00:00 21.3 8 Oeste 18 Oeste 0 928.1 -1.5 47
2019-09-25 16:00:00 20.6 8 Sudoeste 21 Sudoeste 0 928.7 -1.2 46
2019-09-25 15:00:00 19.2 7 Oeste 15 Oeste 0 929.1 -1.2 52
2019-09-25 14:00:00 18.3 7 Sur 17 Sur 0 929.6 -0.5 55
2019-09-25 13:00:00 16.6 7 Sudoeste 17 Sudoeste 0 929.9 0.4 62
2019-09-25 12:00:00 14.9 5 Oeste 13 Oeste 0 930.3 1.1 69
2019-09-25 11:00:00 13.2 8 Noroeste 13 Noroeste 0 930.1 1.5 80
2019-09-25 10:00:00 11.8 3 Sudoeste 9 Sudoeste 0 929.5 0.9 87
2019-09-25 09:00:00 8.7 4 Sur 11 Sudeste 0 929.2 0.6 98
2019-09-25 08:00:00 6.9 3 Norte 9 Oeste 0 928.6 0 96
2019-09-25 07:00:00 7.8 4 Oeste 13 Oeste 0 928.6 0 95
2019-09-25 06:00:00 8.7 13 Sudoeste 13 Oeste 0 928.6 -0.4 96
2019-09-25 05:00:00 9.1 9 Oeste 15 Oeste 0 928.6 -0.3 95
2019-09-25 04:00:00 10.1 14 Oeste 18 Oeste 0 928.6 -0.3 94
2019-09-25 03:00:00 10.9 12 Oeste 17 Oeste 0 929 -0.1 91
2019-09-25 02:00:00 11.6 12 Oeste 18 Oeste 0 928.9 0.1 90
2019-09-25 01:00:00 12.6 13 Oeste 21 Oeste 0 928.9 0.4 89
2019-09-25 00:00:00 13.4 12 Oeste 21 Oeste 0 929.1 1.2 87
2019-09-24 23:00:00 14.1 11 Oeste 28 Oeste 0 928.8 1.3 85
2019-09-24 22:00:00 15.4 15 Sudoeste 30 Oeste 0 928.5 1.1 82
2019-09-24 21:00:00 17.4 20 Oeste 33 Oeste 0 927.9 0.5 73
2019-09-24 20:00:00 19.9 22 Oeste 41 Oeste 0 927.5 -0.6 65
2019-09-24 19:00:00 21.2 25 Oeste 42 Oeste 0 927.4 -0.7 64
2019-09-24 18:00:00 21.1 28 Oeste 41 Oeste 0 927.4 -0.9 71
2019-09-24 17:00:00 18.5 23 Sudoeste 41 Oeste 0 928.1 -0.8 91
2019-09-24 16:00:00 20.4 22 Oeste 41 Oeste 0 928.1 -1 70
2019-09-24 15:00:00 20.8 19 Sudoeste 32 Sudoeste 0 928.3 -0.9 72
2019-09-24 14:00:00 20.5 21 Sudoeste 37 Oeste 0 928.9 -0.5 72
2019-09-24 13:00:00 20.4 20 Oeste 32 Oeste 0 929.1 0.1 68
2019-09-24 12:00:00 19.4 13 Sudoeste 21 Oeste 0 929.2 0.4 64
2019-09-24 11:00:00 14.9 5 Oeste 9 Sudoeste 0 929.4 0.9 85
2019-09-24 10:00:00 13.2 3 Norte 9 Sudoeste 0 929 0.4 91
2019-09-24 09:00:00 9.2 2 Sudoeste 9 Oeste 0 928.8 0.1 96
2019-09-24 08:00:00 8 5 Sudoeste 13 Sur 0 928.5 -0.4 94
2019-09-24 07:00:00 8.1 5 Oeste 9 Sudoeste 0 928.6 -0.2 91
2019-09-24 06:00:00 8.1 3 Oeste 8 Sudoeste 0 928.7 -0.6 91
2019-09-24 05:00:00 9 8 Oeste 11 Oeste 0 928.9 -0.6 93
2019-09-24 04:00:00 9.4 0 Calma 4 Nordeste 0 928.8 -1.1 91
2019-09-24 03:00:00 10.8 4 Sur 11 Oeste 0 929.3 -0.6 87
2019-09-24 02:00:00 11.6 9 Oeste 15 Sudoeste 0 929.5 -0.4 84
2019-09-24 01:00:00 12.2 11 Sudoeste 13 Sudoeste 0 929.9 0.1 84
2019-09-24 00:00:00 12.6 9 Oeste 11 Oeste 0 929.9 0.5 82
2019-09-23 23:00:00 13.7 10 Oeste 17 Oeste 0 929.9 0.9 79
2019-09-23 22:00:00 15.2 11 Noroeste 18 Sudoeste 0 929.8 0.9 74
2019-09-23 21:00:00 17.3 16 Sudoeste 22 Sudoeste 0 929.4 0.5 64
2019-09-23 20:00:00 20.7 9 Oeste 17 Oeste 0 929 0.1 51
2019-09-23 19:00:00 21.3 10 Oeste 18 Oeste 0 928.9 -0.4 44
2019-09-23 18:00:00 22.8 14 Oeste 30 Oeste 0 928.9 -0.6 34
2019-09-23 17:00:00 23.4 14 Oeste 28 Oeste 0 928.9 -1.1 33
2019-09-23 16:00:00 21.7 10 Oeste 28 Oeste 0 929.3 -0.9 38
2019-09-23 15:00:00 21.1 14 Oeste 24 Oeste 0 929.5 -0.9 42
2019-09-23 14:00:00 19.6 13 Oeste 24 Oeste 0 930 -0.1 52
2019-09-23 13:00:00 18 10 Oeste 22 Oeste 0 930.2 0.3 63
2019-09-23 12:00:00 16.1 5 Sudoeste 13 Sudeste 0 930.4 0.7 68
2019-09-23 11:00:00 14.2 7 Sur 11 Sur 0 930.1 0.2 80
2019-09-23 10:00:00 11.4 6 Sur 11 Sur 0 929.9 0.7 93
2019-09-23 09:00:00 8.6 6 Sudeste 8 Sudeste 0 929.7 0.8 98
2019-09-23 08:00:00 6.3 -- -- -- -- 0 929.9 1.1 97
2019-09-23 07:00:00 6.7 2 Este 9 Sur 0 929.2 0.8 95
2019-09-23 06:00:00 8.3 6 Sur -- -- 0 928.9 0.3 93
2019-09-23 05:00:00 8.3 8 Sur 9 Sur 0 928.8 0.6 94
2019-09-23 04:00:00 8.6 3 Este 9 Sudoeste 0 928.4 0.1 92
2019-09-23 03:00:00 9.5 0 Calma 11 Oeste 0 928.6 0.5 91
2019-09-23 02:00:00 10.4 8 Oeste 17 Oeste 0 928.2 0.6 89
2019-09-23 01:00:00 9.2 10 Oeste 13 Oeste 0 928.3 0.9 91
2019-09-23 00:00:00 9.5 9 Noroeste 11 Noroeste 0 928.1 1.3 90
2019-09-22 23:00:00 11.1 6 Sudoeste 8 Sudoeste 0 927.6 1.4 82
2019-09-22 22:00:00 11.7 5 Sudoeste -- -- 0 927.4 1.4 78
2019-09-22 21:00:00 12.7 11 Noroeste 13 Noroeste 0 926.8 1.3 75
2019-09-22 20:00:00 16 10 Noroeste 28 Noroeste 0 926.2 0.8 58
2019-09-22 19:00:00 18 15 Oeste 32 Noroeste 0 926 0.6 54
2019-09-22 18:00:00 20 17 Oeste 33 Oeste 0 925.5 0 46
2019-09-22 17:00:00 19.1 21 Oeste 32 Noroeste 0 925.4 -0.3 48
2019-09-22 16:00:00 19.7 20 Oeste 35 Oeste 0 925.4 -0.4 45
2019-09-22 15:00:00 18 14 Oeste 26 Oeste 0 925.5 -0.2 59
2019-09-22 14:00:00 16.7 13 Noroeste 22 Oeste 0 925.7 0.4 71
2019-09-22 13:00:00 15 8 Oeste 15 Oeste 0 925.8 0.8 80
2019-09-22 12:00:00 13.3 8 Oeste 21 Oeste 0.2 925.7 1.2 93
2019-09-22 11:00:00 13.9 9 Oeste 15 Sudoeste 0 925.3 1.7 84
2019-09-22 10:00:00 12.6 8 Sudoeste 13 Sudoeste 0 925 2 88
2019-09-22 09:00:00 10.9 4 Oeste 8 Sudoeste 0 924.5 1.8 96
2019-09-22 08:00:00 10.8 7 Sur 17 Sudoeste 0 923.6 1.1 94
2019-09-22 07:00:00 11.6 10 Sudoeste 15 Sudoeste 0 923 0.9 93
2019-09-22 06:00:00 11.5 7 Oeste 15 Oeste 0 922.7 0.6 94
2019-09-22 05:00:00 11.5 9 Oeste 22 Oeste 0 922.5 1 94
2019-09-22 04:00:00 11.5 13 Oeste 24 Oeste 0 922.1 1.7 95
2019-09-22 03:00:00 11.5 18 Oeste 45 Noroeste 0.1 922.1 1.7 94
2019-09-22 02:00:00 12.8 27 Noroeste 46 Oeste 3.6 921.5 1.1 96
2019-09-22 01:00:00 16.3 14 Sudoeste 30 Sudoeste 2.5 920.4 -0.2 95
2019-09-22 00:00:00 16.8 17 Sudoeste 24 Sudoeste 0 920.4 0 86
2019-09-21 23:00:00 16.9 20 Sudoeste 33 Oeste 0 920.4 0.1 85
2019-09-21 22:00:00 16.6 18 Sudoeste 35 Sudoeste 0 920.6 -0.1 84
2019-09-21 21:00:00 16.7 21 Sudoeste 35 Sudoeste 0 920.4 -0.4 84
2019-09-21 20:00:00 16.9 23 Sudoeste 39 Sudoeste 0 920.3 -0.6 85
2019-09-21 19:00:00 17.4 29 Sudoeste 42 Sudoeste 0 920.7 -0.3 81
2019-09-21 18:00:00 18 26 Sudoeste 46 Sudoeste 0 920.8 -0.6 80
2019-09-21 17:00:00 18.3 26 Sudoeste 41 Sudoeste 0 920.9 -0.9 79
2019-09-21 16:00:00 20.6 29 Sudoeste 45 Sudoeste 0 921 -1.2 68
2019-09-21 15:00:00 17.6 10 Sur 17 Sur 0 921.4 -0.9 82
2019-09-21 14:00:00 16.6 6 Sudoeste 13 Sur 0.3 921.8 -0.4 88
2019-09-21 13:00:00 16.3 6 Sur 13 Sur 0.4 922.2 0.1 88
2019-09-21 12:00:00 15.9 4 Oeste 24 Sudoeste 0.1 922.3 0.5 86
2019-09-21 11:00:00 15.9 13 Sudoeste 28 Sudoeste 0.3 922.2 0.5 85
2019-09-21 10:00:00 15.7 11 Sudoeste 17 Sudoeste 0 922.1 0.5 82
2019-09-21 09:00:00 14.6 6 Sur 11 Sur 0 921.8 -0.2 85
2019-09-21 08:00:00 13.5 8 Sur 18 Sur 0 921.7 -0.5 86
2019-09-21 07:00:00 14.2 9 Sur 13 Sur 0 921.6 -1 84
2019-09-21 06:00:00 14 2 Nordeste 8 Nordeste 0 922 -0.7 86
2019-09-21 05:00:00 14.1 6 Sur 17 Sudoeste 0 922.2 -0.5 82
2019-09-21 04:00:00 14.7 9 Sur 13 Sur 0 922.6 -0.3 79
2019-09-21 03:00:00 15.8 10 Sur 17 Sudoeste 0 922.7 -0.4 76
2019-09-21 02:00:00 16.9 9 Sudoeste 22 Sudoeste 0 922.7 -0.3 78
2019-09-21 01:00:00 17.8 18 Sudoeste 22 Sudoeste 0 922.9 0 73
2019-09-21 00:00:00 17.6 9 Sudoeste 13 Sur 0 923.1 0.4 74
2019-09-20 23:00:00 18.2 9 Sudoeste 21 Sudoeste 0 923 0.7 69
2019-09-20 22:00:00 18.9 15 Sudoeste 22 Sudoeste 0 922.9 0.4 64
2019-09-20 21:00:00 19.6 14 Sudoeste 21 Sudoeste 0 922.7 0.7 67
2019-09-20 20:00:00 20.5 7 Nordeste 41 Oeste 0 922.3 0.1 63
2019-09-20 19:00:00 20.6 36 Sudoeste 48 Oeste 0 922.5 -0.4 59
2019-09-20 18:00:00 24.4 22 Sudoeste 37 Sudoeste 0 922 -1.2 45
2019-09-20 17:00:00 27.5 24 Sur 35 Sur 0 922.2 -1.5 35
2019-09-20 16:00:00 25.9 21 Sur 35 Sur 0 922.9 -1.4 37
2019-09-20 15:00:00 25.8 18 Sur 33 Sudoeste 0 923.2 -1.4 36
2019-09-20 14:00:00 26.6 14 Sur 28 Sudoeste 0 923.7 -0.9 33
2019-09-20 13:00:00 25.7 18 Sudoeste 33 Sudoeste 0 924.3 -0.3 40
2019-09-20 12:00:00 23.9 13 Sudoeste 21 Sur 0 924.6 0.5 49
2019-09-20 11:00:00 20.1 8 Sur 17 Sudeste 0 924.6 0.7 67
2019-09-20 10:00:00 16.2 3 Este 9 Oeste 0 924.6 0.7 86
2019-09-20 09:00:00 13.8 0 Calma 8 Este 0 924.1 0.1 93
2019-09-20 08:00:00 13.4 5 Este 5 Este 0 923.9 -0.5 92
2019-09-20 07:00:00 13.4 0 Calma 8 Este 0 923.9 -0.6 93
2019-09-20 06:00:00 12.8 0 Calma 9 Sur 0 924 -0.9 93
2019-09-20 05:00:00 13.6 6 Sudeste 9 Sudeste 0 924.4 -0.9 93
2019-09-20 04:00:00 13.5 5 Nordeste 8 Nordeste 0 924.5 -1.1 93
2019-09-20 03:00:00 14.3 5 Este -- -- -- 924.9 -0.8 90
2019-09-20 02:00:00 14.7 3 Norte 8 Este 0 925.3 -0.5 91
2019-09-20 01:00:00 15.5 3 Sudeste -- -- 0 925.6 0 88
2019-09-20 00:00:00 16 7 Este -- -- 0 925.7 0.6 86
2019-09-19 23:00:00 18.3 4 Sur 13 Sudoeste 0 925.8 1 77
2019-09-19 22:00:00 19.5 0 Calma 4 Este 0 925.6 0.7 76
2019-09-19 21:00:00 21 3 Este -- -- 0 925.1 0.2 67
2019-09-19 20:00:00 24.2 5 Este 11 Este 0 924.8 -0.5 49
2019-09-19 19:00:00 26.4 8 Sudeste 13 Sudeste 0 924.9 -0.8 37
2019-09-19 18:00:00 26.9 5 Norte 21 Norte 0 924.9 -1.5 35
2019-09-19 17:00:00 27 5 Este 17 Este 0 925.3 -1.6 37
2019-09-19 16:00:00 26.5 8 Este 18 Nordeste 0 925.7 -1.6 41
2019-09-19 15:00:00 26 8 Este 21 Este 0 926.4 -1.3 43
2019-09-19 14:00:00 25 10 Este 22 Nordeste 0 926.9 -0.8 46
2019-09-19 13:00:00 24 12 Este 18 Nordeste 0 927.3 -0.3 53
2019-09-19 12:00:00 21.9 9 Este 13 Este 0 927.7 0.4 66
2019-09-19 11:00:00 18.6 6 Este 13 Este 0 927.7 0.8 79
2019-09-19 10:00:00 15.3 3 Sudeste 8 Sur 0 927.6 0.7 89
2019-09-19 09:00:00 10.9 2 Noroeste 5 Norte 0 927.3 0.5 96
2019-09-19 08:00:00 10.7 0 Calma 4 Sudoeste 0 926.9 -0.1 95
2019-09-19 07:00:00 10.6 0 Calma 8 Nordeste 0 926.9 -0.1 96
2019-09-19 06:00:00 10.9 2 Este 5 Sudeste 0 926.8 -0.5 94
2019-09-19 05:00:00 11.6 5 Sur 8 Sudoeste 0 927 -0.4 94
2019-09-19 04:00:00 12.2 3 Este 9 Nordeste 0 927 -0.4 94
2019-09-19 03:00:00 12.5 4 Este -- -- -- 927.3 -0.2 93
2019-09-19 02:00:00 12.8 6 Este 9 Este 0 927.4 0 94
2019-09-19 01:00:00 13.8 4 Nordeste -- -- 0 927.4 0.1 90
2019-09-19 00:00:00 15.5 -- -- -- -- 0 927.5 0.8 86
2019-09-18 23:00:00 15.5 3 Este 8 Nordeste 0 927.4 0.9 87
2019-09-18 22:00:00 17.4 4 Sudeste 8 Este 0 927.3 1 81
2019-09-18 21:00:00 19.8 8 Sudeste -- -- 0 926.7 0.4 71
2019-09-18 20:00:00 23.4 6 Sudeste 13 Nordeste 0 926.5 0.2 55
2019-09-18 19:00:00 24.9 5 Este 15 Norte 0 926.3 -0.5 43
2019-09-18 18:00:00 25.2 10 Nordeste 22 Norte 0 926.3 -0.9 43
2019-09-18 17:00:00 25.2 8 Nordeste 21 Nordeste 0 926.3 -1.3 44
2019-09-18 16:00:00 24.9 8 Norte 17 Norte 0 926.8 -0.9 43
2019-09-18 15:00:00 24 8 Nordeste 17 Este 0 927.2 -0.6 51
2019-09-18 14:00:00 23.3 9 Este 18 Este 0 927.6 0.2 54
2019-09-18 13:00:00 21.6 9 Este 17 Nordeste 0 927.7 0.7 57
2019-09-18 12:00:00 20 12 Este 21 Sudeste 0 927.8 0.8 69
2019-09-18 11:00:00 17.4 9 Este 15 Este 0 927.4 1 83
2019-09-18 10:00:00 14.8 3 Este 8 Este 0 927 0.9 93
2019-09-18 09:00:00 11.8 0 Calma 4 Este 0 927 0.8 98
2019-09-18 08:00:00 11.3 0 Calma 8 Este 0 926.4 -0.1 97
2019-09-18 07:00:00 12.7 4 Sudeste 8 Este 0 926.1 0.1 97
2019-09-18 06:00:00 12.9 5 Este 17 Nordeste 0 926.2 -0.3 96
2019-09-18 05:00:00 12.8 7 Sudoeste 11 Sudoeste 0 926.5 -0.4 94
2019-09-18 04:00:00 13 5 Nordeste 13 Sudeste 0 926 -0.4 94
2019-09-18 03:00:00 13.8 10 Este -- -- -- 926.5 0.2 94
2019-09-18 02:00:00 13.9 8 Nordeste 15 Este 0 926.9 -0.4 94
2019-09-18 01:00:00 14.3 10 Este 17 Sur 0 926.4 -1.8 94
2019-09-18 00:00:00 14.3 5 Norte 17 Norte 0.2 926.3 -0.7 93
2019-09-17 23:00:00 14.7 3 Este 13 Nordeste 2.1 927.3 0.4 90
2019-09-17 22:00:00 15.3 9 Sudeste 45 Sur 0.1 928.2 2.4 85
2019-09-17 21:00:00 16.2 23 Sur 37 Sur 1 927 1.7 85